Weather at CFB Trenton

Public forecast

Using degrees Celsius for public forecast. Weather courtesy of forecast.io.

Current aviation weather report (METAR) for CFB Trenton

Retrieved 2021/01/19 17:00 UTC (35 minutes ago):

CYTR 191700Z 20003KT 15SM FEW020 BKN075 M03/M06 A2993 RMK SC2AC6 SLP140

Aviation forecast (TAF) for CFB Trenton

Retrieved 2021/01/19 12:33 UTC (5 hours ago):

TAF CYTR 191130Z 1912/2012 VRB03KT P6SM -SN SCT015 BKN030 TEMPO 1912/1916 2SM -SN BKN015 OVC030 PROB30 1913/1916 1SM -SHSN OVC015 FM191600 VRB03KT P6SM SCT015 BKN030 TEMPO 1916/1918 3SM -SHSN BECMG 1916/1918 25015G25KT FM191800 24015G25KT P6SM BKN030 BECMG 1921/1923 24012KT FM200100 26010KT P6SM SCT030 BKN100 FM201000 31005KT P6SM BKN040 RMK FCST BASED ON AUTO OBS 200300-201100Z NXT FCST BY 191800Z